Weather History for KHAI - May, 2015

Change the Weather History Date:

Sunday, May 24, 2015

  Actual Average Record
Temperature  
Mean Temperature 64 °F -  
Max Temperature 79 °F 73 °F 88 °F (1975)
Min Temperature 50 °F 49 °F 32 °F (1963)
Growing Degree Days 14 (Base 50)    
Moisture  
Dew Point 52 °F    
Average Humidity 63    
Maximum Humidity 92    
Minimum Humidity 40    
Precipitation  
Precipitation 0.00 in - - ()
Sea Level Pressure  
Sea Level Pressure 30.17 in    
Wind  
Wind Speed 3 mph (SSE)    
Max Wind Speed 12 mph    
Max Gust Speed -    
Visibility 10 miles    
Events Rain    
Averages and records for this station are not official NWS values.
T = Trace of Precipitation, MM = Missing Value Source: NWS Daily Summary

Daily Weather History Graph

Daily Weather History Graph

Search for Another Location

Airport or City:

Trip Planner

Search our weather history database for the weather conditions in past years. The results will help you decide how hot, cold, wet, or windy it might be!

Date:

Astronomy

May. 24, 2015 Rise Set
Actual Time 6:14 AM EDT 9:04 PM EDT
Civil Twilight 5:41 AM EDT 9:37 PM EDT
Nautical Twilight 5:00 AM EDT 10:19 PM EDT
Astronomical Twilight 4:12 AM EDT 11:07 PM EDT
Moon 12:28 PM EDT (5/24) 1:30 AM EDT (5/24)
Length of Visible Light 15h 55m
Length of Day
14h 50m
Waxing Crescent, 40% of the Moon is Illuminated
May 24
Waxing Crescent
May 25
First Quarter
Jun 2
Full
Jun 9
Last Quarter
Jun 16
New

Hourly Weather History & Observations

Time (EDT) Temp. Dew Point Humidity Pressure Visibility Wind Dir Wind Speed Gust Speed Precip Events Conditions
12:15 AM 57.6 °F 50.0 °F 76% 30.25 in 10.0 mi Calm Calm - N/A   Scattered Clouds
12:34 AM 57.4 °F 49.3 °F 74% 30.25 in 10.0 mi Calm Calm - N/A   Clear
12:55 AM 56.3 °F 49.3 °F 77% 30.25 in 7.0 mi Calm Calm - N/A   Clear
1:15 AM 56.5 °F 49.8 °F 78% 30.25 in 10.0 mi Calm Calm - N/A   Clear
1:35 AM 55.4 °F 48.9 °F 79% 30.24 in 10.0 mi Calm Calm - N/A   Clear
1:55 AM 55.0 °F 48.9 °F 80% 30.24 in 10.0 mi Calm Calm - N/A   Clear
2:14 AM 54.5 °F 49.1 °F 82% 30.24 in 10.0 mi Calm Calm - N/A   Clear
2:35 AM 54.9 °F 49.8 °F 83% 30.23 in 10.0 mi Calm Calm - N/A   Clear
2:54 AM 53.6 °F 49.8 °F 87% 30.24 in 10.0 mi Calm Calm - N/A   Clear
3:15 AM 53.1 °F 50.0 °F 89% 30.24 in 10.0 mi Calm Calm - N/A   Clear
3:35 AM 53.1 °F 49.8 °F 89% 30.24 in 10.0 mi Calm Calm - N/A   Clear
3:54 AM 52.2 °F 49.1 °F 89% 30.24 in 10.0 mi Calm Calm - N/A   Clear
4:15 AM 52.3 °F 49.1 °F 89% 30.24 in 10.0 mi Calm Calm - N/A   Clear
4:35 AM 52.3 °F 48.9 °F 88% 30.24 in 10.0 mi Calm Calm - N/A   Clear
4:54 AM 51.8 °F 48.4 °F 88% 30.25 in 10.0 mi Calm Calm - N/A   Clear
5:15 AM 50.5 °F 48.0 °F 91% 30.25 in 10.0 mi Calm Calm - N/A   Clear
5:35 AM 51.3 °F 48.2 °F 89% 30.26 in 10.0 mi Calm Calm - N/A   Clear
5:54 AM 50.5 °F 48.4 °F 92% 30.26 in 7.0 mi Calm Calm - N/A   Clear
6:15 AM 50.7 °F 48.0 °F 90% 30.26 in 10.0 mi Calm Calm - N/A   Clear
6:35 AM 50.5 °F 48.0 °F 91% 30.26 in 7.0 mi Calm Calm - N/A   Clear
6:54 AM 50.5 °F 48.2 °F 92% 30.26 in 10.0 mi Calm Calm - N/A   Clear
7:15 AM 51.8 °F 49.3 °F 91% 30.26 in 10.0 mi Calm Calm - N/A   Clear
7:35 AM 55.4 °F 52.3 °F 89% 30.25 in 10.0 mi Calm Calm - N/A   Clear
7:55 AM 57.2 °F 53.6 °F 88% 30.25 in 10.0 mi Calm Calm - N/A   Clear
8:15 AM 59.2 °F 53.1 °F 80% 30.25 in 10.0 mi Calm Calm - N/A   Clear
8:34 AM 62.6 °F 51.8 °F 68% 30.25 in 10.0 mi South 3.5 mph - N/A   Clear
8:55 AM 62.6 °F 50.5 °F 65% 30.24 in 10.0 mi SSE 3.5 mph - N/A   Clear
9:15 AM 64.0 °F 50.7 °F 62% 30.24 in 10.0 mi South 4.6 mph - N/A   Clear
9:34 AM 64.8 °F 51.3 °F 62% 30.24 in 10.0 mi South 5.8 mph - N/A   Clear
9:55 AM 69.1 °F 52.2 °F 55% 30.24 in 10.0 mi South 10.4 mph - N/A   Clear
10:15 AM 70.5 °F 52.3 °F 52% 30.23 in 10.0 mi South 9.2 mph - N/A   Scattered Clouds
10:34 AM 70.9 °F 52.0 °F 51% 30.23 in 10.0 mi South 4.6 mph - N/A   Scattered Clouds
10:55 AM 72.3 °F 52.9 °F 50% 30.22 in 10.0 mi SSE 5.8 mph - N/A   Mostly Cloudy
11:15 AM 71.8 °F 53.1 °F 52% 30.23 in 10.0 mi SSW 8.1 mph - N/A   Scattered Clouds
11:34 AM 71.6 °F 52.9 °F 52% 30.22 in 10.0 mi SSW 9.2 mph - N/A   Scattered Clouds
11:55 AM 70.7 °F 53.4 °F 54% 30.22 in 10.0 mi SSW 8.1 mph - N/A Rain Light Rain
12:15 PM 71.6 °F 54.0 °F 54% 30.21 in 10.0 mi South 5.8 mph - N/A   Mostly Cloudy
12:35 PM 72.3 °F 53.6 °F 52% 30.21 in 10.0 mi South 4.6 mph - N/A   Mostly Cloudy
12:55 PM 71.8 °F 53.4 °F 52% 30.20 in 10.0 mi SSE 4.6 mph - N/A   Overcast
1:15 PM 72.7 °F 53.1 °F 50% 30.20 in 10.0 mi South 6.9 mph - N/A   Mostly Cloudy
1:35 PM 73.4 °F 54.0 °F 50% 30.20 in 10.0 mi South 6.9 mph - N/A   Mostly Cloudy
1:55 PM 73.4 °F 54.9 °F 52% 30.18 in 10.0 mi SSE 4.6 mph - N/A   Mostly Cloudy
2:15 PM 73.4 °F 54.1 °F 51% 30.17 in 10.0 mi SE 4.6 mph - N/A   Mostly Cloudy
2:35 PM 73.4 °F 55.4 °F 53% 30.17 in 10.0 mi SE 6.9 mph - N/A   Mostly Cloudy
2:55 PM 73.8 °F 55.4 °F 53% 30.16 in 10.0 mi SSE 3.5 mph - N/A   Overcast
3:14 PM 74.3 °F 55.6 °F 52% 30.15 in 10.0 mi SE 5.8 mph - N/A   Overcast
3:35 PM 75.7 °F 56.3 °F 51% 30.15 in 10.0 mi SE 5.8 mph - N/A   Mostly Cloudy
3:55 PM 76.3 °F 56.3 °F 50% 30.14 in 10.0 mi ESE 4.6 mph - N/A   Scattered Clouds
4:14 PM 76.3 °F 55.6 °F 49% 30.13 in 10.0 mi East 6.9 mph - N/A   Scattered Clouds
4:35 PM 76.5 °F 56.5 °F 50% 30.11 in 10.0 mi East 6.9 mph - N/A   Mostly Cloudy
4:55 PM 76.8 °F 55.8 °F 48% 30.10 in 10.0 mi ESE 6.9 mph - N/A   Mostly Cloudy
5:14 PM 76.3 °F 56.3 °F 50% 30.09 in 10.0 mi East 5.8 mph - N/A   Mostly Cloudy
5:35 PM 77.2 °F 56.5 °F 49% 30.08 in 10.0 mi ESE 6.9 mph - N/A   Mostly Cloudy
5:55 PM 77.0 °F 56.5 °F 49% 30.07 in 10.0 mi ESE 4.6 mph - N/A   Mostly Cloudy
6:15 PM 77.4 °F 57.2 °F 50% 30.06 in 10.0 mi ESE 8.1 mph - N/A   Mostly Cloudy
6:35 PM 78.8 °F 57.7 °F 48% 30.04 in 10.0 mi ESE 8.1 mph - N/A   Mostly Cloudy
6:54 PM 77.9 °F 56.5 °F 48% 30.04 in 10.0 mi SE 6.9 mph - N/A   Mostly Cloudy
7:15 PM 78.1 °F 54.9 °F 45% 30.03 in 10.0 mi SSE 6.9 mph - N/A   Scattered Clouds
7:35 PM 78.6 °F 54.0 °F 42% 30.02 in 10.0 mi SSE 8.1 mph - N/A   Mostly Cloudy
7:54 PM 79.3 °F 53.2 °F 40% 30.02 in 10.0 mi SSE 9.2 mph - N/A   Scattered Clouds
8:35 PM 78.1 °F 52.3 °F 41% 30.02 in 10.0 mi South 11.5 mph - N/A   Scattered Clouds
8:54 PM 77.4 °F 52.3 °F 42% 30.02 in 10.0 mi South 10.4 mph - N/A   Scattered Clouds
9:15 PM 76.3 °F 52.7 °F 44% 30.02 in 10.0 mi SSE 6.9 mph - N/A   Clear
9:34 PM 75.4 °F 52.9 °F 45% 30.02 in 10.0 mi SSE 6.9 mph - N/A   Clear
9:55 PM 74.7 °F 53.1 °F 47% 30.02 in 10.0 mi SSE 8.1 mph - N/A   Clear
10:15 PM 74.5 °F 53.1 °F 47% 30.03 in 10.0 mi South 8.1 mph - N/A   Clear
10:34 PM 73.9 °F 52.9 °F 48% 30.03 in 10.0 mi South 6.9 mph - N/A   Clear
10:55 PM 73.2 °F 53.1 °F 49% 30.03 in 10.0 mi South 9.2 mph - N/A   Clear
11:15 PM 73.2 °F 52.9 °F 49% 30.02 in 10.0 mi South 9.2 mph - N/A   Clear
11:34 PM 72.1 °F 53.2 °F 51% 30.02 in 10.0 mi South 9.2 mph - N/A   Scattered Clouds
11:55 PM 71.6 °F 53.6 °F 53% 30.02 in 10.0 mi South 9.2 mph - N/A   Clear